createdAt,value
2017-06-22T00:01:23.235Z,10.57
2017-06-22T00:03:49.182Z,11.43
2017-06-22T00:06:15.123Z,10.53
2017-06-22T00:08:41.039Z,9.60
2017-06-22T00:11:06.974Z,10.60
2017-06-22T00:13:32.940Z,10.13
2017-06-22T00:15:58.846Z,10.50
2017-06-22T00:18:24.755Z,10.67
2017-06-22T00:20:50.687Z,11.00
2017-06-22T00:23:16.619Z,10.57
2017-06-22T00:25:42.531Z,11.20
2017-06-22T00:28:08.448Z,10.73
2017-06-22T00:30:34.398Z,10.67
2017-06-22T00:33:00.311Z,10.00
2017-06-22T00:35:26.246Z,11.27
2017-06-22T00:37:52.191Z,11.60
2017-06-22T00:40:18.895Z,10.70
2017-06-22T00:42:44.827Z,10.73
2017-06-22T00:45:10.745Z,10.87
2017-06-22T00:47:36.925Z,11.30
2017-06-22T00:50:02.877Z,11.20
2017-06-22T00:52:28.779Z,10.30
2017-06-22T00:54:54.694Z,10.50
2017-06-22T00:57:20.618Z,11.30
2017-06-22T00:59:46.554Z,10.83
2017-06-22T01:02:12.452Z,11.20
2017-06-22T01:04:38.403Z,10.60
2017-06-22T01:07:04.314Z,10.97
2017-06-22T01:09:30.232Z,10.90
2017-06-22T01:11:56.141Z,11.70
2017-06-22T01:14:22.075Z,11.00
2017-06-22T01:16:48.012Z,10.03
2017-06-22T01:19:13.908Z,10.70
2017-06-22T01:21:39.860Z,11.10
2017-06-22T01:26:38.532Z,10.30
2017-06-22T01:29:04.451Z,10.30
2017-06-22T01:31:30.375Z,9.30
2017-06-22T01:33:56.308Z,10.90
2017-06-22T01:36:22.439Z,9.80
2017-06-22T01:38:48.348Z,11.67
2017-06-22T01:41:14.255Z,10.87
2017-06-22T01:43:40.208Z,11.40
2017-06-22T01:46:06.117Z,10.70
2017-06-22T01:48:32.046Z,10.33
2017-06-22T01:50:57.975Z,10.90
2017-06-22T01:53:23.967Z,10.60
2017-06-22T01:55:50.817Z,11.73
2017-06-22T01:58:16.727Z,11.63
2017-06-22T02:00:42.661Z,10.50
2017-06-22T02:03:08.617Z,10.40
2017-06-22T02:05:35.271Z,11.40
2017-06-22T02:08:01.191Z,11.83
2017-06-22T02:10:27.148Z,12.50
2017-06-22T02:12:53.120Z,12.00
2017-06-22T02:15:19.070Z,13.53
2017-06-22T02:17:45.028Z,11.90
2017-06-22T02:20:10.982Z,11.23
2017-06-22T02:22:36.904Z,12.50
2017-06-22T02:25:03.555Z,11.00
2017-06-22T02:27:29.515Z,11.17
2017-06-22T02:29:55.451Z,12.10
2017-06-22T02:32:21.386Z,13.07
2017-06-22T02:34:47.358Z,12.70
2017-06-22T02:37:13.281Z,12.90
2017-06-22T02:39:39.207Z,12.07
2017-06-22T02:42:05.168Z,12.90
2017-06-22T02:44:31.114Z,12.53
2017-06-22T02:46:57.032Z,12.40
2017-06-22T02:49:23.703Z,13.17
2017-06-22T02:51:49.663Z,13.40
2017-06-22T02:54:15.631Z,13.53
2017-06-22T02:56:41.554Z,12.57
2017-06-22T02:59:07.469Z,12.57
2017-06-22T03:01:33.405Z,13.23
2017-06-22T03:03:59.363Z,13.00
2017-06-22T03:06:25.283Z,11.90
2017-06-22T03:08:51.217Z,14.07
2017-06-22T03:11:17.161Z,12.67
2017-06-22T03:13:43.880Z,14.63
2017-06-22T03:16:09.819Z,14.00
2017-06-22T03:18:35.784Z,14.30
2017-06-22T03:21:01.723Z,15.10
2017-06-22T03:23:27.633Z,14.10
2017-06-22T03:25:53.535Z,13.07
2017-06-22T03:28:19.431Z,14.77
2017-06-22T03:30:45.347Z,16.40
2017-06-22T03:33:11.267Z,17.40
2017-06-22T03:35:37.203Z,17.60
2017-06-22T03:38:03.196Z,17.40
2017-06-22T03:40:29.871Z,18.10
2017-06-22T03:42:55.939Z,17.97
2017-06-22T03:45:21.889Z,18.57
2017-06-22T03:47:47.818Z,16.70
2017-06-22T03:50:14.597Z,20.00
2017-06-22T03:52:40.602Z,18.50
2017-06-22T03:55:06.513Z,19.50
2017-06-22T03:57:32.440Z,19.13
2017-06-22T03:59:58.377Z,17.37
2017-06-22T04:02:24.291Z,18.60
2017-06-22T04:04:50.248Z,18.73
2017-06-22T04:07:16.170Z,18.33
2017-06-22T04:09:42.091Z,18.87
2017-06-22T04:12:08.023Z,18.40
2017-06-22T04:14:33.958Z,18.00
2017-06-22T04:16:59.904Z,17.47
2017-06-22T04:19:25.867Z,18.60
2017-06-22T04:21:51.795Z,17.20
2017-06-22T04:24:17.757Z,17.23
2017-06-22T04:26:43.703Z,16.23
2017-06-22T04:29:09.611Z,15.93
2017-06-22T04:31:35.772Z,14.50
2017-06-22T04:34:01.703Z,16.00
2017-06-22T04:36:27.635Z,14.67
2017-06-22T04:38:53.525Z,14.00
2017-06-22T04:41:19.451Z,14.07
2017-06-22T04:43:45.383Z,15.53
2017-06-22T04:46:11.341Z,18.33
2017-06-22T04:48:37.322Z,19.70
2017-06-22T04:51:03.245Z,19.70
2017-06-22T04:53:29.184Z,18.83
2017-06-22T04:55:55.841Z,18.13
2017-06-22T04:58:21.791Z,20.33
2017-06-22T05:00:47.715Z,19.27
2017-06-22T05:03:13.679Z,21.20
2017-06-22T05:05:39.675Z,17.50
2017-06-22T05:08:05.591Z,19.07
2017-06-22T05:10:31.501Z,19.13
2017-06-22T05:12:57.434Z,19.00
2017-06-22T05:15:23.351Z,19.97
2017-06-22T05:17:49.288Z,17.10
2017-06-22T05:20:15.214Z,18.00
2017-06-22T05:22:41.920Z,18.23
2017-06-22T05:25:07.849Z,16.93
2017-06-22T05:27:33.769Z,18.23
2017-06-22T05:29:59.683Z,18.27
2017-06-22T05:32:25.655Z,20.93
2017-06-22T05:34:51.559Z,16.53
2017-06-22T05:37:17.513Z,20.00
2017-06-22T05:39:43.475Z,19.40
2017-06-22T05:42:09.389Z,17.27
2017-06-22T05:44:35.335Z,17.90
2017-06-22T05:47:01.250Z,18.83
2017-06-22T05:49:27.186Z,17.10
2017-06-22T05:51:53.106Z,19.50
2017-06-22T05:54:19.024Z,19.70
2017-06-22T05:56:45.019Z,18.43
2017-06-22T05:59:11.668Z,17.63
2017-06-22T06:01:37.663Z,19.03
2017-06-22T06:04:03.641Z,18.60
2017-06-22T06:06:29.561Z,19.87
2017-06-22T06:08:56.233Z,18.50
2017-06-22T06:11:22.215Z,18.23
2017-06-22T06:13:48.148Z,18.93
2017-06-22T06:16:14.118Z,19.00
2017-06-22T06:18:40.055Z,18.40
2017-06-22T06:21:05.995Z,17.80
2017-06-22T06:23:32.684Z,17.77
2017-06-22T06:25:58.647Z,19.13
2017-06-22T06:28:24.611Z,17.20
2017-06-22T06:30:50.561Z,18.60
2017-06-22T06:33:16.555Z,18.30
2017-06-22T06:35:42.499Z,18.63
2017-06-22T06:38:08.415Z,19.80
2017-06-22T06:40:34.415Z,19.67
2017-06-22T06:43:00.415Z,17.90
2017-06-22T06:45:26.331Z,20.17
2017-06-22T06:47:52.279Z,19.23
2017-06-22T06:50:18.263Z,19.23
2017-06-22T06:52:44.955Z,20.23
2017-06-22T06:55:10.924Z,18.40
2017-06-22T06:57:36.849Z,20.27
2017-06-22T07:00:02.783Z,20.93
2017-06-22T07:02:28.695Z,18.63
2017-06-22T07:04:54.606Z,19.13
2017-06-22T07:07:20.538Z,19.10
2017-06-22T07:09:46.483Z,19.03
2017-06-22T07:12:12.471Z,19.37
2017-06-22T07:14:39.134Z,19.17
2017-06-22T07:17:05.049Z,19.37
2017-06-22T07:19:30.959Z,18.80
2017-06-22T07:21:56.889Z,18.23
2017-06-22T07:24:22.824Z,17.80
2017-06-22T07:26:48.728Z,18.50
2017-06-22T07:29:14.666Z,20.67
2017-06-22T07:31:40.603Z,20.80
2017-06-22T07:34:06.555Z,20.60
2017-06-22T07:36:32.479Z,19.20
2017-06-22T07:38:58.399Z,21.03
2017-06-22T07:41:24.337Z,19.73
2017-06-22T07:43:50.336Z,18.60
2017-06-22T07:46:16.263Z,20.67
2017-06-22T07:48:42.910Z,19.93
2017-06-22T07:51:08.857Z,20.70
2017-06-22T07:53:34.784Z,19.70
2017-06-22T07:56:00.680Z,19.87
2017-06-22T07:58:26.695Z,19.47
2017-06-22T08:00:52.607Z,19.47
2017-06-22T08:03:18.527Z,19.77
2017-06-22T08:05:44.458Z,20.70
2017-06-22T08:08:10.376Z,21.30
2017-06-22T08:10:36.327Z,19.60
2017-06-22T08:13:02.320Z,20.23
2017-06-22T08:15:28.987Z,19.70
2017-06-22T08:17:54.943Z,20.17
2017-06-22T08:20:20.847Z,21.10
2017-06-22T08:22:46.811Z,19.50
2017-06-22T08:25:12.731Z,20.80
2017-06-22T08:27:38.668Z,18.67
2017-06-22T08:30:04.578Z,18.93
2017-06-22T08:32:30.495Z,19.57
2017-06-22T08:34:56.453Z,18.60
2017-06-22T08:37:22.427Z,18.90
2017-06-22T08:39:49.094Z,19.07
2017-06-22T08:42:15.027Z,18.90
2017-06-22T08:44:40.948Z,19.20
2017-06-22T08:47:06.896Z,19.10
2017-06-22T08:49:32.843Z,20.10
2017-06-22T08:51:58.827Z,20.17
2017-06-22T08:54:24.771Z,20.17
2017-06-22T08:56:50.657Z,19.13
2017-06-22T08:59:17.150Z,18.37
2017-06-22T09:01:43.271Z,17.93
2017-06-22T09:04:09.186Z,16.30
2017-06-22T09:06:35.103Z,17.90
2017-06-22T09:09:01.028Z,18.73
2017-06-22T09:11:27.013Z,19.57
2017-06-22T09:13:52.973Z,18.10
2017-06-22T09:16:18.916Z,17.77
2017-06-22T09:18:44.852Z,19.13
2017-06-22T09:21:10.871Z,19.37
2017-06-22T09:23:36.797Z,19.37
2017-06-22T09:26:02.747Z,18.03
2017-06-22T09:28:28.663Z,20.40
2017-06-22T09:30:54.564Z,19.50
2017-06-22T09:33:20.463Z,20.70
2017-06-22T09:35:46.395Z,20.33
2017-06-22T09:38:12.447Z,19.67
2017-06-22T09:40:38.387Z,20.77
2017-06-22T09:43:04.320Z,18.67
2017-06-22T09:45:30.219Z,20.30
2017-06-22T09:47:56.169Z,19.80
2017-06-22T09:50:22.096Z,20.80
2017-06-22T09:52:48.056Z,17.40
2017-06-22T09:55:15.159Z,19.37
2017-06-22T09:57:41.105Z,19.40
2017-06-22T10:00:07.013Z,18.70
2017-06-22T10:02:33.028Z,17.80
2017-06-22T10:04:59.679Z,19.83
2017-06-22T10:07:25.618Z,19.23
2017-06-22T10:09:51.540Z,18.57
2017-06-22T10:12:17.485Z,18.97
2017-06-22T10:14:43.428Z,19.67
2017-06-22T10:17:09.426Z,20.00
2017-06-22T10:19:35.384Z,19.97
2017-06-22T10:22:01.307Z,19.37
2017-06-22T10:24:27.416Z,18.93
2017-06-22T10:26:53.347Z,17.57
2017-06-22T10:29:19.271Z,17.60
2017-06-22T10:31:45.196Z,19.73
2017-06-22T10:34:11.156Z,18.43
2017-06-22T10:36:37.100Z,18.60
2017-06-22T10:39:03.105Z,19.73
2017-06-22T10:41:29.089Z,20.87
2017-06-22T10:43:54.999Z,18.87
2017-06-22T10:46:20.923Z,18.80
2017-06-22T10:48:46.887Z,19.10
2017-06-22T10:51:12.855Z,19.00
2017-06-22T10:53:38.811Z,18.37
2017-06-22T10:56:04.806Z,18.90
2017-06-22T10:58:31.550Z,19.20
2017-06-22T11:00:57.545Z,18.80
2017-06-22T11:03:23.510Z,19.90
2017-06-22T11:05:49.489Z,19.00
2017-06-22T11:08:15.444Z,19.70
2017-06-22T11:10:41.427Z,20.30
2017-06-22T11:13:10.382Z,21.20
2017-06-22T11:15:36.316Z,19.00
2017-06-22T11:18:02.303Z,20.00
2017-06-22T11:20:28.317Z,17.60
2017-06-22T11:22:54.287Z,20.40
2017-06-22T11:25:20.269Z,18.43
2017-06-22T11:27:46.276Z,20.47
2017-06-22T11:30:12.248Z,20.20
2017-06-22T11:32:38.231Z,18.53
2017-06-22T11:35:07.142Z,16.93
2017-06-22T11:37:33.110Z,15.90
2017-06-22T11:39:59.235Z,16.23
2017-06-22T11:42:25.212Z,16.73
2017-06-22T11:44:51.152Z,15.30
2017-06-22T11:47:17.091Z,16.00
2017-06-22T11:49:43.853Z,15.47
2017-06-22T11:52:09.817Z,16.20
2017-06-22T11:54:35.802Z,16.47
2017-06-22T11:57:02.505Z,15.63
2017-06-22T11:59:28.447Z,15.90
2017-06-22T12:01:54.388Z,15.73
2017-06-22T12:04:20.316Z,15.90
2017-06-22T12:06:46.311Z,15.67
2017-06-22T12:09:13.046Z,16.47
2017-06-22T12:11:38.969Z,17.47
2017-06-22T12:14:04.888Z,17.00
2017-06-22T12:16:30.929Z,15.07
2017-06-22T12:18:58.840Z,15.37
2017-06-22T12:21:24.870Z,16.17
2017-06-22T12:23:50.864Z,15.80
2017-06-22T12:26:16.889Z,14.77
2017-06-22T12:28:42.913Z,14.57
2017-06-22T12:31:08.958Z,14.60
2017-06-22T12:33:35.288Z,15.80
2017-06-22T12:36:02.133Z,14.00
2017-06-22T12:38:28.252Z,16.20
2017-06-22T12:40:54.248Z,15.30
2017-06-22T12:43:20.212Z,15.57
2017-06-22T12:45:46.163Z,16.17
2017-06-22T12:48:12.114Z,16.60
2017-06-22T12:50:38.051Z,16.23
2017-06-22T12:53:04.070Z,14.63
2017-06-22T12:55:30.029Z,15.93
2017-06-22T12:57:57.415Z,15.30
2017-06-22T13:00:24.188Z,15.70
2017-06-22T13:02:50.103Z,16.17
2017-06-22T13:05:16.060Z,15.77
2017-06-22T13:07:42.043Z,15.90
2017-06-22T13:10:08.020Z,16.33
2017-06-22T13:12:34.024Z,15.67
2017-06-22T13:14:59.960Z,15.40
2017-06-22T13:17:25.899Z,15.63
2017-06-22T13:19:51.905Z,14.67
2017-06-22T13:22:17.908Z,15.93
2017-06-22T13:24:44.046Z,15.53
2017-06-22T13:27:10.776Z,15.87
2017-06-22T13:29:36.755Z,15.90
2017-06-22T13:32:02.704Z,15.57
2017-06-22T13:34:28.741Z,16.40
2017-06-22T13:36:54.919Z,16.37
2017-06-22T13:39:20.843Z,15.30
2017-06-22T13:41:46.816Z,15.77
2017-06-22T13:44:13.003Z,16.60
2017-06-22T13:46:38.960Z,16.20
2017-06-22T13:49:05.258Z,16.70
2017-06-22T13:51:32.108Z,16.43
2017-06-22T13:53:58.053Z,18.10
2017-06-22T13:56:23.986Z,16.70
2017-06-22T13:58:49.964Z,17.33
2017-06-22T14:01:15.924Z,16.00
2017-06-22T14:03:41.945Z,18.10
2017-06-22T14:06:07.911Z,16.63
2017-06-22T14:08:33.896Z,16.17
2017-06-22T14:10:59.843Z,16.77
2017-06-22T14:13:25.764Z,16.20
2017-06-22T14:15:51.762Z,16.33
2017-06-22T14:18:18.457Z,18.27
2017-06-22T14:20:44.375Z,17.90
2017-06-22T14:23:10.301Z,18.10
2017-06-22T14:25:36.220Z,16.83
2017-06-22T14:28:02.141Z,17.17
2017-06-22T14:30:29.538Z,15.70
2017-06-22T14:32:55.510Z,16.20
2017-06-22T14:35:21.503Z,15.47
2017-06-22T14:37:47.459Z,15.23
2017-06-22T14:40:13.483Z,14.40
2017-06-22T14:42:39.456Z,13.80
2017-06-22T14:45:05.418Z,15.10
2017-06-22T14:47:31.468Z,14.50
2017-06-22T14:49:57.427Z,13.83
2017-06-22T14:52:23.360Z,13.10
2017-06-22T14:54:49.283Z,12.60
2017-06-22T14:57:15.237Z,11.53
2017-06-22T14:59:41.192Z,11.47
2017-06-22T15:02:07.184Z,11.53
2017-06-22T15:04:33.121Z,10.80
2017-06-22T15:06:59.033Z,10.93
2017-06-22T15:09:25.016Z,8.77
2017-06-22T15:11:50.947Z,8.90
2017-06-22T15:14:16.906Z,9.97
2017-06-22T15:16:42.871Z,10.77
2017-06-22T15:19:08.846Z,9.50
2017-06-22T15:21:34.812Z,10.03
2017-06-22T15:24:00.731Z,10.13
2017-06-22T15:26:26.651Z,10.13
2017-06-22T15:28:52.660Z,9.50
2017-06-22T15:31:18.699Z,10.40
2017-06-22T15:33:44.647Z,9.43
2017-06-22T15:36:10.644Z,10.10
2017-06-22T15:38:36.697Z,9.63
2017-06-22T15:41:02.865Z,10.13
2017-06-22T15:43:28.815Z,10.00
2017-06-22T15:45:54.774Z,10.77
2017-06-22T15:48:20.788Z,11.53
2017-06-22T15:50:46.797Z,11.27
2017-06-22T15:53:12.869Z,11.17
2017-06-22T15:55:39.817Z,11.07
2017-06-22T15:58:05.771Z,12.40
2017-06-22T16:00:31.705Z,11.67
2017-06-22T16:02:57.677Z,12.27
2017-06-22T16:05:23.637Z,13.37
2017-06-22T16:07:49.599Z,13.47
2017-06-22T16:10:15.605Z,12.07
2017-06-22T16:12:41.553Z,12.27
2017-06-22T16:15:07.481Z,12.93
2017-06-22T16:17:33.447Z,12.70
2017-06-22T16:19:59.401Z,13.97
2017-06-22T16:22:25.335Z,13.73
2017-06-22T16:24:51.441Z,12.80
2017-06-22T16:27:17.368Z,13.30
2017-06-22T16:29:43.314Z,14.20
2017-06-22T16:32:09.250Z,12.43
2017-06-22T16:34:35.224Z,13.60
2017-06-22T16:37:01.260Z,14.10
2017-06-22T16:39:27.195Z,14.33
2017-06-22T16:41:53.883Z,13.77
2017-06-22T16:44:19.835Z,13.30
2017-06-22T16:46:45.805Z,14.10
2017-06-22T16:49:11.725Z,15.20
2017-06-22T16:51:37.707Z,13.00
2017-06-22T16:54:03.648Z,12.20
2017-06-22T16:56:29.644Z,12.50
2017-06-22T16:58:55.579Z,12.90
2017-06-22T17:01:21.535Z,13.20
2017-06-22T17:03:47.442Z,11.80
2017-06-22T17:06:14.384Z,11.60
2017-06-22T17:08:40.392Z,11.10
2017-06-22T17:11:07.075Z,10.60
2017-06-22T17:13:33.041Z,10.30
2017-06-22T17:17:27.738Z,10.83
2017-06-22T17:19:53.927Z,10.50
2017-06-22T17:22:19.891Z,10.40
2017-06-22T17:24:45.842Z,10.77
2017-06-22T17:27:11.779Z,11.63
2017-06-22T17:29:37.791Z,10.73
2017-06-22T17:32:03.718Z,11.80
2017-06-22T17:34:29.734Z,12.37
2017-06-22T17:36:55.847Z,11.20
2017-06-22T17:39:21.917Z,11.77
2017-06-22T17:41:47.954Z,11.83
2017-06-22T17:44:13.915Z,13.27
2017-06-22T17:46:39.925Z,11.30
2017-06-22T17:49:05.966Z,11.03
2017-06-22T17:51:31.900Z,11.77
2017-06-22T17:53:57.959Z,11.23
2017-06-22T17:56:23.927Z,12.97
2017-06-22T17:58:49.946Z,14.20
2017-06-22T18:01:15.970Z,11.70
2017-06-22T18:03:42.032Z,10.23
2017-06-22T18:06:08.016Z,11.50
2017-06-22T18:08:34.040Z,10.70
2017-06-22T18:11:00.003Z,13.17
2017-06-22T18:13:26.060Z,11.50
2017-06-22T18:15:52.019Z,11.40
2017-06-22T18:18:18.852Z,13.43
2017-06-22T18:20:44.788Z,13.83
2017-06-22T18:23:10.794Z,12.23
2017-06-22T18:25:36.818Z,13.27
2017-06-22T18:28:02.791Z,14.93
2017-06-22T18:30:28.741Z,13.40
2017-06-22T18:32:54.689Z,12.60
2017-06-22T18:35:21.016Z,12.33
2017-06-22T18:37:47.090Z,12.70
2017-06-22T18:40:13.105Z,13.13
2017-06-22T18:42:39.078Z,13.00
2017-06-22T18:45:05.050Z,12.73
2017-06-22T18:47:31.107Z,13.20
2017-06-22T18:49:57.095Z,13.30
2017-06-22T18:52:23.636Z,12.87
2017-06-22T18:54:50.434Z,14.13
2017-06-22T18:57:16.660Z,13.73
2017-06-22T18:59:42.634Z,14.67
2017-06-22T19:02:09.360Z,14.43
2017-06-22T19:04:35.339Z,13.73
2017-06-22T19:07:02.131Z,14.03
2017-06-22T19:09:28.158Z,13.47
2017-06-22T19:11:55.014Z,12.70
2017-06-22T19:14:22.143Z,13.03
2017-06-22T19:16:49.816Z,13.83
2017-06-22T19:19:15.806Z,14.10
2017-06-22T19:21:41.821Z,17.97
2017-06-22T19:24:07.887Z,24.43
2017-06-22T19:26:33.921Z,15.10
2017-06-22T19:28:59.870Z,14.53
2017-06-22T19:31:26.400Z,16.27
2017-06-22T19:33:52.375Z,14.23
2017-06-22T19:36:18.449Z,14.23
2017-06-22T19:38:46.009Z,14.30
2017-06-22T19:41:12.941Z,14.57
2017-06-22T19:43:38.998Z,14.57
2017-06-22T19:46:04.971Z,12.97
2017-06-22T19:48:30.989Z,14.20
2017-06-22T19:50:57.623Z,13.87
2017-06-22T19:53:23.705Z,13.80
2017-06-22T19:55:50.313Z,16.57
2017-06-22T19:58:19.744Z,15.00
2017-06-22T20:00:49.703Z,14.50
2017-06-22T20:03:16.435Z,14.50
2017-06-22T20:05:43.136Z,13.17
2017-06-22T20:08:09.079Z,16.03
2017-06-22T20:10:35.877Z,13.80
2017-06-22T20:13:01.821Z,14.80
2017-06-22T20:15:27.807Z,15.00
2017-06-22T20:17:54.684Z,15.00
2017-06-22T20:20:21.489Z,14.63
2017-06-22T20:22:47.458Z,13.87
2017-06-22T20:25:13.435Z,15.40
2017-06-22T20:27:39.403Z,15.07
2017-06-22T20:30:05.357Z,15.27
2017-06-22T20:32:31.556Z,14.27
2017-06-22T20:34:57.523Z,14.90
2017-06-22T20:37:23.762Z,15.40
2017-06-22T20:39:49.776Z,20.43
2017-06-22T20:42:15.785Z,16.00
2017-06-22T20:44:41.763Z,15.07
2017-06-22T20:47:07.807Z,14.37
2017-06-22T20:49:33.763Z,14.40
2017-06-22T20:51:59.739Z,14.40
2017-06-22T20:54:25.792Z,16.10
2017-06-22T20:56:51.730Z,18.07
2017-06-22T20:59:17.667Z,16.80
2017-06-22T21:01:43.639Z,22.40
2017-06-22T21:04:09.588Z,16.10
2017-06-22T21:06:35.520Z,16.60
2017-06-22T21:09:01.477Z,15.53
2017-06-22T21:11:27.431Z,16.80
2017-06-22T21:13:53.395Z,17.50
2017-06-22T21:16:19.363Z,16.50
2017-06-22T21:18:46.052Z,25.23
2017-06-22T21:21:12.020Z,17.50
2017-06-22T21:23:37.975Z,15.23
2017-06-22T21:26:03.901Z,16.73
2017-06-22T21:28:29.856Z,15.20
2017-06-22T21:30:55.808Z,15.77
2017-06-22T21:33:22.490Z,18.80
2017-06-22T21:35:48.407Z,16.87
2017-06-22T21:38:14.327Z,16.00
2017-06-22T21:40:40.358Z,16.00
2017-06-22T21:43:06.370Z,13.83
2017-06-22T21:45:33.299Z,15.87
2017-06-22T21:47:59.984Z,17.00
2017-06-22T21:50:25.904Z,18.20
2017-06-22T21:52:51.869Z,16.13
2017-06-22T21:55:18.633Z,16.07
2017-06-22T21:57:44.588Z,17.60
2017-06-22T22:00:10.565Z,16.67
2017-06-22T22:02:36.485Z,17.90
2017-06-22T22:05:03.762Z,16.57
2017-06-22T22:07:29.713Z,17.37
2017-06-22T22:09:55.647Z,16.80
2017-06-22T22:12:21.852Z,16.03
2017-06-22T22:14:47.856Z,17.30
2017-06-22T22:17:13.810Z,18.30
2017-06-22T22:19:40.568Z,15.83
2017-06-22T22:22:06.677Z,17.50
2017-06-22T22:24:32.941Z,16.30
2017-06-22T22:26:58.887Z,15.50
2017-06-22T22:29:24.987Z,18.07
2017-06-22T22:31:50.945Z,17.53
2017-06-22T22:34:16.885Z,16.20
2017-06-22T22:36:42.823Z,17.17
2017-06-22T22:39:08.839Z,16.23
2017-06-22T22:41:35.401Z,16.83
2017-06-22T22:44:01.599Z,17.03
2017-06-22T22:46:28.119Z,17.37
2017-06-22T22:48:54.095Z,17.43
2017-06-22T22:51:20.067Z,17.40
2017-06-22T22:53:46.935Z,18.20
2017-06-22T22:56:12.875Z,18.07
2017-06-22T22:58:38.881Z,17.73
2017-06-22T23:01:04.822Z,18.37
2017-06-22T23:03:30.769Z,19.20
2017-06-22T23:05:56.736Z,18.50
2017-06-22T23:08:22.815Z,18.37
2017-06-22T23:10:48.736Z,17.50
2017-06-22T23:13:14.697Z,19.27
2017-06-22T23:15:40.640Z,18.90
2017-06-22T23:18:06.825Z,17.43
2017-06-22T23:20:32.764Z,17.30
2017-06-22T23:22:58.713Z,16.80
2017-06-22T23:25:24.670Z,15.13
2017-06-22T23:27:50.615Z,16.37
2017-06-22T23:30:16.607Z,15.80
2017-06-22T23:32:42.616Z,15.50
2017-06-22T23:35:08.577Z,15.20
2017-06-22T23:37:34.550Z,15.67
2017-06-22T23:40:00.534Z,15.73
2017-06-22T23:42:26.554Z,15.17
2017-06-22T23:44:52.555Z,14.63
2017-06-22T23:47:18.492Z,15.73
2017-06-22T23:49:44.854Z,15.90
2017-06-22T23:52:10.840Z,15.33
2017-06-22T23:54:37.355Z,16.60
2017-06-22T23:57:03.411Z,15.47
2017-06-22T23:59:29.402Z,15.93
